Time;durP1;ratioP1;P1;durP2;ratioP2;P2;SDS_P1;SDS_P2;PMS_P1;PMS_P2;Temp;Humidity;BMP_temperature;BMP_pressure;BME280_temperature;BME280_humidity;BME280_pressure;Samples;Min_cycle;Max_cycle;Signal;HPM_P1;HPM_P2
2021/10/26 00:01:34;;;;;;;60.17;30.17;;;10.90;99.90;;;;;;5009807;28;20556;-90
2021/10/26 00:03:59;;;;;;;55.92;30.02;;;10.90;99.90;;;;;;5013344;28;20064;-89
2021/10/26 00:06:25;;;;;;;68.07;30.73;;;10.90;99.90;;;;;;5029448;28;20085;-87
2021/10/26 00:08:51;;;;;;;66.65;33.53;;;10.80;99.90;;;;;;5012989;28;20076;-88
2021/10/26 00:11:16;;;;;;;60.78;33.88;;;10.90;99.90;;;;;;5024928;28;20042;-87
2021/10/26 00:13:42;;;;;;;54.30;26.90;;;10.90;99.90;;;;;;5003462;28;20056;-87
2021/10/26 00:16:08;;;;;;;27.27;13.73;;;10.90;99.90;;;;;;5028849;28;20049;-87
2021/10/26 00:18:34;;;;;;;10.82;6.72;;;10.90;99.90;;;;;;5028666;28;20055;-88
2021/10/26 00:21:00;;;;;;;10.73;6.63;;;10.70;99.90;;;;;;5029039;28;20408;-87
2021/10/26 00:23:26;;;;;;;13.68;7.18;;;10.70;99.90;;;;;;5006647;28;20124;-88
2021/10/26 00:25:52;;;;;;;14.07;7.38;;;10.60;99.90;;;;;;5021875;28;20057;-88
2021/10/26 00:28:17;;;;;;;20.92;7.50;;;10.60;99.90;;;;;;5012917;28;20041;-87
2021/10/26 00:30:43;;;;;;;16.50;8.57;;;10.70;99.90;;;;;;5030396;28;20053;-87
2021/10/26 00:33:09;;;;;;;22.40;12.18;;;10.60;99.90;;;;;;5029147;28;20049;-87
2021/10/26 00:35:34;;;;;;;24.85;13.23;;;10.50;99.90;;;;;;5028441;28;20120;-86
2021/10/26 00:38:01;;;;;;;21.60;10.95;;;10.50;99.90;;;;;;5012825;28;20053;-88
2021/10/26 00:40:28;;;;;;;19.60;10.23;;;10.60;99.90;;;;;;5028549;28;20049;-86
2021/10/26 00:42:53;;;;;;;15.75;8.65;;;10.50;99.90;;;;;;5029554;28;20041;-87
2021/10/26 00:45:21;;;;;;;7.22;6.43;;;10.50;99.90;;;;;;5012872;28;20130;-91
2021/10/26 00:47:47;;;;;;;6.68;4.00;;;10.40;99.90;;;;;;5029891;28;20049;-87
2021/10/26 00:50:14;;;;;;;11.73;4.22;;;10.40;99.90;;;;;;5013840;28;20116;-89
2021/10/26 00:52:43;;;;;;;10.35;4.75;;;10.20;99.90;;;;;;5028934;28;20088;-88
2021/10/26 00:55:09;;;;;;;9.30;6.03;;;10.30;99.90;;;;;;5030318;28;20050;-88
2021/10/26 00:57:35;;;;;;;18.10;9.27;;;10.30;99.90;;;;;;5030066;28;20087;-89
2021/10/26 01:00:01;;;;;;;15.70;9.85;;;10.20;99.90;;;;;;5029086;28;20079;-88
2021/10/26 01:02:26;;;;;;;38.72;11.57;;;10.30;99.90;;;;;;5028454;28;20052;-88
2021/10/26 01:04:52;;;;;;;29.05;12.52;;;10.10;99.90;;;;;;5044793;28;20060;-89
2021/10/26 01:07:18;;;;;;;22.60;13.57;;;10.20;99.90;;;;;;5049924;28;20060;-89
2021/10/26 01:09:45;;;;;;;30.73;14.43;;;10.00;99.90;;;;;;5031446;28;20053;-90
2021/10/26 01:12:11;;;;;;;34.72;15.70;;;10.10;99.90;;;;;;5032275;28;20512;-89
2021/10/26 01:14:38;;;;;;;30.40;15.65;;;10.00;99.90;;;;;;5021881;28;20049;-89
2021/10/26 01:17:11;;;;;;;27.33;15.55;;;10.00;99.90;;;;;;5035871;28;20115;-89
2021/10/26 01:19:47;;;;;;;27.45;12.60;;;10.00;99.90;;;;;;5035316;28;20049;-88
2021/10/26 01:22:14;;;;;;;19.42;12.25;;;10.00;99.90;;;;;;5018559;28;20400;-89
2021/10/26 01:24:40;;;;;;;22.60;11.20;;;9.90;99.90;;;;;;5032245;28;20043;-89
2021/10/26 01:27:06;;;;;;;26.30;11.48;;;9.90;99.90;;;;;;5031735;28;20097;-88
2021/10/26 01:29:32;;;;;;;21.83;11.55;;;9.90;99.90;;;;;;5034384;28;20056;-90
2021/10/26 01:32:01;;;;;;;21.98;12.30;;;9.90;99.90;;;;;;5031847;28;20057;-88
2021/10/26 01:34:27;;;;;;;34.03;12.55;;;9.80;99.90;;;;;;5033572;28;20044;-88
2021/10/26 01:36:56;;;;;;;21.45;11.98;;;9.80;99.90;;;;;;5018218;28;20048;-89
2021/10/26 01:39:21;;;;;;;33.85;13.57;;;9.80;99.90;;;;;;5018277;28;20092;-89
2021/10/26 01:41:48;;;;;;;25.45;12.95;;;9.70;99.90;;;;;;5035012;28;20084;-88
2021/10/26 01:44:13;;;;;;;25.35;14.18;;;9.80;99.90;;;;;;5019099;28;20056;-89
2021/10/26 01:46:39;;;;;;;29.00;15.52;;;9.90;99.90;;;;;;5034879;28;20063;-89
2021/10/26 01:49:05;;;;;;;33.50;16.67;;;9.90;99.90;;;;;;5018878;28;20103;-88
2021/10/26 01:51:30;;;;;;;32.75;18.73;;;9.90;99.90;;;;;;5034247;28;20049;-87
2021/10/26 01:53:56;;;;;;;40.92;19.65;;;10.00;99.90;;;;;;4994882;28;20042;-88
2021/10/26 01:56:22;;;;;;;44.92;23.17;;;9.90;99.90;;;;;;5028962;28;20068;-88
2021/10/26 01:58:48;;;;;;;48.22;25.13;;;10.00;99.90;;;;;;5013444;28;20469;-88
2021/10/26 02:01:14;;;;;;;54.72;27.60;;;9.90;99.90;;;;;;5034991;28;20135;-88
2021/10/26 02:03:40;;;;;;;62.35;29.30;;;10.00;99.90;;;;;;5033967;28;20063;-88
2021/10/26 02:06:05;;;;;;;67.03;29.83;;;10.10;99.90;;;;;;5034998;28;20057;-88
2021/10/26 02:08:31;;;;;;;69.47;30.73;;;10.00;99.90;;;;;;5034525;28;20488;-88
2021/10/26 02:10:57;;;;;;;66.32;30.73;;;10.10;99.90;;;;;;5018522;28;20452;-87
2021/10/26 02:13:22;;;;;;;78.32;33.63;;;10.10;99.90;;;;;;5035017;28;20118;-88
2021/10/26 02:15:48;;;;;;;71.47;33.75;;;10.10;99.90;;;;;;5017818;28;20045;-88
2021/10/26 02:18:14;;;;;;;76.20;34.17;;;10.10;99.90;;;;;;5018296;28;20528;-88
2021/10/26 02:20:39;;;;;;;73.45;35.72;;;10.20;99.90;;;;;;5004339;28;20064;-88
2021/10/26 02:23:05;;;;;;;76.47;35.80;;;10.10;99.90;;;;;;5034553;28;20037;-88
2021/10/26 02:25:31;;;;;;;75.25;35.80;;;10.10;99.90;;;;;;5033395;28;20049;-88
2021/10/26 02:27:57;;;;;;;81.60;38.20;;;10.10;99.90;;;;;;5017312;28;20130;-88
2021/10/26 02:30:23;;;;;;;91.70;39.67;;;10.10;99.90;;;;;;5052022;28;20049;-88
2021/10/26 02:32:49;;;;;;;84.90;38.30;;;10.10;99.90;;;;;;5033736;28;20071;-88
2021/10/26 02:35:14;;;;;;;90.80;39.00;;;10.10;99.90;;;;;;5017639;28;20053;-88
2021/10/26 02:37:40;;;;;;;93.22;39.17;;;10.00;99.90;;;;;;5033534;28;20420;-89
2021/10/26 02:40:06;;;;;;;94.75;39.70;;;9.90;99.90;;;;;;5017822;28;20037;-90
2021/10/26 02:42:32;;;;;;;92.65;40.83;;;9.90;99.90;;;;;;5051003;28;20125;-90
2021/10/26 02:44:58;;;;;;;111.72;42.90;;;10.00;99.90;;;;;;5030274;28;20136;-89
2021/10/26 02:47:23;;;;;;;105.35;43.75;;;9.90;99.90;;;;;;5033389;28;20045;-89
2021/10/26 02:49:49;;;;;;;100.10;42.92;;;9.90;99.90;;;;;;5032556;28;20067;-89
2021/10/26 02:52:15;;;;;;;103.65;42.53;;;9.90;99.90;;;;;;5029645;28;20081;-88
2021/10/26 02:54:40;;;;;;;105.88;45.55;;;10.00;99.90;;;;;;5013125;28;20045;-89
2021/10/26 02:57:06;;;;;;;118.75;44.60;;;10.00;99.90;;;;;;5032365;28;20161;-87
2021/10/26 02:59:32;;;;;;;97.97;42.17;;;10.00;99.90;;;;;;5050111;28;20060;-92
2021/10/26 03:01:58;;;;;;;101.85;42.97;;;10.00;99.90;;;;;;5032733;28;20045;-88
2021/10/26 03:04:23;;;;;;;104.05;41.80;;;10.00;99.90;;;;;;5038778;28;20602;-88
2021/10/26 03:06:49;;;;;;;105.80;43.85;;;10.00;99.90;;;;;;5030961;28;20566;-87
2021/10/26 03:09:15;;;;;;;101.22;42.67;;;10.10;99.90;;;;;;5031749;28;20441;-88
2021/10/26 03:11:40;;;;;;;108.20;43.17;;;10.30;99.90;;;;;;5031959;28;20041;-87
2021/10/26 03:14:06;;;;;;;101.43;41.60;;;10.20;99.90;;;;;;5016442;28;20106;-87
2021/10/26 03:16:32;;;;;;;104.07;43.58;;;10.20;99.90;;;;;;5029963;28;20077;-91
2021/10/26 03:18:58;;;;;;;100.03;42.42;;;10.20;99.90;;;;;;5016061;28;20063;-87
2021/10/26 03:21:23;;;;;;;107.30;42.97;;;10.20;99.90;;;;;;5016632;28;20060;-90
2021/10/26 03:23:50;;;;;;;98.78;42.58;;;10.10;99.90;;;;;;5016314;28;20052;-88
2021/10/26 03:26:15;;;;;;;108.30;42.08;;;10.20;99.90;;;;;;5016776;28;20037;-88
2021/10/26 03:28:41;;;;;;;94.20;40.70;;;10.20;99.90;;;;;;4999967;28;20666;-88
2021/10/26 03:31:07;;;;;;;90.47;39.05;;;10.10;99.90;;;;;;5032805;28;20090;-87
2021/10/26 03:33:32;;;;;;;103.00;40.75;;;10.20;99.90;;;;;;5032960;28;20091;-89
2021/10/26 03:36:00;;;;;;;103.18;41.80;;;10.00;99.90;;;;;;5032180;28;20397;-88
2021/10/26 03:38:26;;;;;;;91.22;39.95;;;10.00;99.90;;;;;;5000458;28;20045;-88
2021/10/26 03:40:52;;;;;;;96.03;40.38;;;10.00;99.90;;;;;;5024751;28;20075;-88
2021/10/26 03:43:17;;;;;;;99.70;40.65;;;10.00;99.90;;;;;;5033311;28;20048;-88
2021/10/26 03:45:43;;;;;;;100.03;40.78;;;10.10;99.90;;;;;;5032449;28;20095;-88
2021/10/26 03:48:09;;;;;;;96.22;40.17;;;10.00;99.90;;;;;;5016335;28;20041;-87
2021/10/26 03:50:35;;;;;;;94.28;38.33;;;10.10;99.90;;;;;;5031926;28;20049;-90
2021/10/26 03:53:01;;;;;;;85.25;38.90;;;10.00;99.90;;;;;;5023561;28;20053;-87
2021/10/26 03:55:26;;;;;;;96.25;38.83;;;9.90;99.90;;;;;;5020436;28;20045;-87
2021/10/26 03:57:52;;;;;;;91.72;40.03;;;9.90;99.90;;;;;;5016924;28;20488;-87
2021/10/26 04:00:18;;;;;;;101.88;40.50;;;9.90;99.90;;;;;;5020491;28;20056;-86
2021/10/26 04:02:46;;;;;;;99.90;39.50;;;10.00;99.90;;;;;;5040438;28;20049;-88
2021/10/26 04:05:24;;;;;;;93.82;39.40;;;9.90;99.90;;;;;;5033356;28;20071;-88
2021/10/26 04:07:55;;;;;;;96.13;38.30;;;9.90;99.90;;;;;;5016644;28;20041;-87
2021/10/26 04:10:32;;;;;;;92.80;38.22;;;9.80;99.90;;;;;;5032066;28;20068;-87
2021/10/26 04:12:59;;;;;;;92.93;39.22;;;9.80;99.90;;;;;;5031776;28;20041;-87
2021/10/26 04:15:25;;;;;;;93.80;36.90;;;9.80;99.90;;;;;;5015703;28;20048;-87
2021/10/26 04:17:51;;;;;;;89.57;36.65;;;9.70;99.90;;;;;;5049329;28;20052;-87
2021/10/26 04:20:17;;;;;;;87.65;35.72;;;9.80;99.90;;;;;;5032226;28;20094;-86
2021/10/26 04:22:42;;;;;;;77.85;34.38;;;9.70;99.90;;;;;;5031533;28;20045;-87
2021/10/26 04:25:08;;;;;;;81.53;34.17;;;9.60;99.90;;;;;;5008408;28;20128;-87
2021/10/26 04:27:34;;;;;;;85.95;34.90;;;9.50;99.90;;;;;;5045204;28;20060;-88
2021/10/26 04:30:00;;;;;;;84.40;35.13;;;9.50;99.90;;;;;;5050073;28;20060;-88
2021/10/26 04:32:25;;;;;;;79.38;35.15;;;9.50;99.90;;;;;;5016009;28;20049;-87
2021/10/26 04:34:51;;;;;;;88.60;35.45;;;9.50;99.90;;;;;;5012068;28;20049;-88
2021/10/26 04:37:17;;;;;;;80.75;35.70;;;9.40;99.90;;;;;;5032320;28;20045;-87
2021/10/26 04:39:43;;;;;;;88.38;37.72;;;9.40;99.90;;;;;;5015300;28;20412;-87
2021/10/26 04:42:09;;;;;;;80.03;34.63;;;9.40;99.90;;;;;;5032148;28;20052;-87
2021/10/26 04:44:36;;;;;;;94.38;37.92;;;9.30;99.90;;;;;;5032353;28;20064;-89
2021/10/26 04:47:02;;;;;;;80.55;34.65;;;9.20;99.90;;;;;;5015944;28;20053;-89
2021/10/26 04:49:28;;;;;;;83.00;34.17;;;9.30;99.90;;;;;;5036118;28;20067;-88
2021/10/26 04:51:53;;;;;;;83.75;35.42;;;9.20;99.90;;;;;;5035161;28;20052;-87
2021/10/26 04:54:19;;;;;;;85.47;35.22;;;9.10;99.90;;;;;;5019898;28;20160;-87
2021/10/26 04:56:45;;;;;;;98.22;37.00;;;9.20;99.90;;;;;;5035447;28;20048;-87
2021/10/26 04:59:10;;;;;;;94.97;36.20;;;9.10;99.90;;;;;;5043815;28;20113;-87
2021/10/26 05:01:36;;;;;;;95.05;35.88;;;9.10;99.90;;;;;;5053128;28;20044;-90
2021/10/26 05:04:02;;;;;;;84.15;34.58;;;9.10;99.90;;;;;;5041043;28;20048;-89
2021/10/26 05:06:27;;;;;;;81.80;33.15;;;9.10;99.90;;;;;;5035373;28;20044;-91
2021/10/26 05:08:53;;;;;;;74.25;32.28;;;9.00;99.90;;;;;;5025690;28;20063;-89
2021/10/26 05:11:23;;;;;;;76.65;31.15;;;9.00;99.90;;;;;;5017144;28;20041;-88
2021/10/26 05:13:49;;;;;;;76.40;33.00;;;9.00;99.90;;;;;;5040022;28;20044;-88
2021/10/26 05:16:15;;;;;;;84.88;31.55;;;8.90;99.90;;;;;;5031944;28;20052;-88
2021/10/26 05:18:43;;;;;;;77.28;31.02;;;8.80;99.90;;;;;;5029752;28;20037;-90
2021/10/26 05:21:15;;;;;;;75.45;30.73;;;8.80;99.90;;;;;;5030023;28;20431;-88
2021/10/26 05:23:45;;;;;;;81.65;32.33;;;8.90;99.90;;;;;;5032314;28;20076;-88
2021/10/26 05:26:11;;;;;;;110.05;32.38;;;8.70;99.90;;;;;;5026954;28;20090;-87
2021/10/26 05:28:37;;;;;;;76.05;30.90;;;8.70;99.90;;;;;;5055350;28;20045;-88
2021/10/26 05:31:03;;;;;;;81.15;28.20;;;8.70;99.90;;;;;;5037007;28;20119;-88
2021/10/26 05:33:29;;;;;;;64.78;26.85;;;8.80;99.90;;;;;;5052253;28;20063;-88
2021/10/26 05:35:55;;;;;;;77.45;29.15;;;8.70;99.90;;;;;;5042724;28;20057;-87
2021/10/26 05:38:21;;;;;;;76.93;29.02;;;8.60;99.90;;;;;;5045097;28;20094;-87
2021/10/26 05:40:46;;;;;;;70.53;29.40;;;8.70;99.90;;;;;;5034043;28;20044;-89
2021/10/26 05:43:12;;;;;;;70.90;29.48;;;8.70;99.90;;;;;;5035350;28;20063;-88
2021/10/26 05:45:45;;;;;;;80.80;28.77;;;8.60;99.90;;;;;;5018875;28;20048;-88
2021/10/26 05:48:14;;;;;;;80.55;28.92;;;8.70;99.90;;;;;;5034391;28;20053;-86
2021/10/26 05:50:40;;;;;;;70.70;28.40;;;8.60;99.90;;;;;;5007884;28;20087;-88
2021/10/26 05:53:06;;;;;;;69.15;28.48;;;8.50;99.90;;;;;;5035119;28;20080;-88
2021/10/26 05:55:31;;;;;;;73.18;28.45;;;8.50;99.90;;;;;;5018067;28;20041;-88
2021/10/26 05:57:57;;;;;;;75.00;27.17;;;8.50;99.90;;;;;;5017059;28;20500;-87
2021/10/26 06:00:25;;;;;;;67.15;27.75;;;8.60;99.90;;;;;;5052197;28;20171;-87
2021/10/26 06:02:51;;;;;;;62.38;28.27;;;8.40;99.90;;;;;;5033554;28;20124;-87
2021/10/26 06:05:17;;;;;;;66.45;27.75;;;8.50;99.90;;;;;;5052376;28;20053;-87
2021/10/26 06:07:43;;;;;;;75.88;29.13;;;8.40;99.90;;;;;;5034189;28;20116;-89
2021/10/26 06:10:10;;;;;;;86.90;30.13;;;8.50;99.90;;;;;;5018079;28;20405;-87
2021/10/26 06:12:39;;;;;;;93.20;31.17;;;8.50;99.90;;;;;;5023714;28;20052;-88
2021/10/26 06:15:07;;;;;;;85.70;30.55;;;8.50;99.90;;;;;;5037590;28;20053;-87
2021/10/26 06:17:33;;;;;;;88.55;32.00;;;8.40;99.90;;;;;;5044976;28;20428;-88
2021/10/26 06:19:58;;;;;;;95.13;32.95;;;8.60;99.90;;;;;;5025955;28;20123;-88
2021/10/26 06:22:24;;;;;;;103.25;34.63;;;8.40;99.90;;;;;;5037862;28;20061;-89
2021/10/26 06:24:50;;;;;;;112.95;35.97;;;8.50;99.90;;;;;;5019746;28;20053;-89
2021/10/26 06:27:16;;;;;;;115.50;34.95;;;8.50;99.90;;;;;;5017859;28;20102;-88
2021/10/26 06:29:42;;;;;;;126.00;38.50;;;8.50;99.90;;;;;;5017147;28;20052;-88
2021/10/26 06:32:08;;;;;;;143.48;40.60;;;8.80;99.90;;;;;;5033439;28;20117;-90
2021/10/26 06:34:33;;;;;;;164.30;43.88;;;8.80;99.90;;;;;;5034724;28;20044;-88
2021/10/26 06:36:59;;;;;;;157.73;39.22;;;9.00;99.90;;;;;;5016753;28;20045;-87
2021/10/26 06:39:25;;;;;;;167.63;44.22;;;9.00;99.90;;;;;;5033203;28;20049;-87
2021/10/26 06:41:51;;;;;;;154.77;43.10;;;9.10;99.90;;;;;;5032680;28;20540;-87
2021/10/26 06:44:16;;;;;;;162.13;42.95;;;9.10;99.90;;;;;;5017629;28;20049;-87
2021/10/26 06:46:43;;;;;;;178.00;45.80;;;9.20;99.90;;;;;;5017132;28;20052;-87
2021/10/26 06:49:08;;;;;;;195.63;48.40;;;9.40;99.90;;;;;;5033490;28;20045;-87
2021/10/26 06:51:34;;;;;;;175.98;46.55;;;9.30;99.90;;;;;;5033121;28;20056;-87
2021/10/26 06:54:01;;;;;;;157.23;45.30;;;9.40;99.90;;;;;;5032235;28;20531;-88
2021/10/26 06:56:28;;;;;;;173.77;47.90;;;9.50;99.90;;;;;;5032676;28;20381;-88
2021/10/26 06:58:54;;;;;;;160.75;46.33;;;9.50;99.90;;;;;;5016623;28;20060;-88
2021/10/26 07:01:20;;;;;;;166.35;46.88;;;9.50;99.90;;;;;;5016838;28;20045;-88
2021/10/26 07:03:46;;;;;;;150.98;45.00;;;9.60;99.90;;;;;;5028497;28;20057;-88
2021/10/26 07:06:12;;;;;;;154.98;47.50;;;9.70;99.90;;;;;;5029645;28;20057;-89
2021/10/26 07:08:39;;;;;;;147.23;43.92;;;9.80;99.90;;;;;;5026493;28;21383;-88
2021/10/26 07:11:05;;;;;;;140.57;42.97;;;9.70;99.90;;;;;;5023964;28;20084;-87
2021/10/26 07:13:35;;;;;;;127.30;41.88;;;9.70;99.90;;;;;;5000904;28;20072;-90
2021/10/26 07:16:01;;;;;;;147.35;42.88;;;9.80;99.90;;;;;;5026845;28;20049;-88
2021/10/26 07:18:26;;;;;;;132.23;42.47;;;9.80;99.90;;;;;;4997228;28;20389;-88
2021/10/26 07:20:52;;;;;;;135.13;40.08;;;10.00;99.90;;;;;;5012704;28;20180;-90
2021/10/26 07:23:18;;;;;;;128.30;40.70;;;9.90;99.90;;;;;;5029813;28;20048;-88
2021/10/26 07:25:44;;;;;;;116.80;39.92;;;9.90;99.90;;;;;;5029644;28;20092;-88
2021/10/26 07:28:10;;;;;;;119.07;39.15;;;9.90;99.90;;;;;;5026719;28;20045;-88
2021/10/26 07:30:36;;;;;;;104.32;36.67;;;10.00;99.90;;;;;;5023134;28;20052;-87
2021/10/26 07:33:05;;;;;;;107.90;36.35;;;10.00;99.90;;;;;;5033897;28;20033;-87
2021/10/26 07:35:39;;;;;;;108.00;36.30;;;10.00;99.90;;;;;;5026183;28;20051;-87
2021/10/26 07:38:05;;;;;;;104.53;36.55;;;10.10;99.90;;;;;;5032027;28;20044;-87
2021/10/26 07:40:31;;;;;;;85.57;33.70;;;10.10;99.90;;;;;;5029020;28;20544;-87
2021/10/26 07:42:57;;;;;;;90.57;31.92;;;10.00;99.90;;;;;;5012975;28;20184;-88
2021/10/26 07:45:23;;;;;;;95.38;33.53;;;10.10;99.90;;;;;;5029327;28;20405;-87
2021/10/26 07:47:48;;;;;;;82.47;32.92;;;10.10;99.90;;;;;;5029357;28;20049;-87
2021/10/26 07:50:14;;;;;;;85.05;31.75;;;10.20;99.90;;;;;;5028451;28;20616;-87
2021/10/26 07:52:40;;;;;;;88.70;31.08;;;10.30;99.90;;;;;;5029027;28;20045;-88
2021/10/26 07:55:07;;;;;;;91.38;33.58;;;10.20;99.90;;;;;;5028653;28;20049;-88
2021/10/26 07:57:32;;;;;;;90.30;31.60;;;10.50;99.90;;;;;;5029250;28;20107;-88
2021/10/26 07:59:58;;;;;;;86.93;32.83;;;10.40;99.90;;;;;;5028261;28;20049;-86
2021/10/26 08:02:25;;;;;;;85.20;30.38;;;10.50;99.90;;;;;;5017109;28;20063;-87
2021/10/26 08:04:53;;;;;;;75.85;30.75;;;10.60;99.90;;;;;;5019959;28;20512;-87
2021/10/26 08:07:19;;;;;;;87.63;30.60;;;10.70;99.90;;;;;;5030091;28;20451;-87
2021/10/26 08:09:49;;;;;;;88.18;30.90;;;10.60;99.90;;;;;;5030514;28;20049;-88
2021/10/26 08:12:15;;;;;;;84.30;31.35;;;10.60;99.90;;;;;;5030515;28;20096;-87
2021/10/26 08:14:41;;;;;;;83.05;32.17;;;10.80;99.90;;;;;;5030031;28;20125;-88
2021/10/26 08:17:08;;;;;;;75.97;29.55;;;10.90;99.90;;;;;;5030171;28;20041;-87
2021/10/26 08:19:35;;;;;;;79.55;29.33;;;10.80;99.90;;;;;;5030280;28;20449;-86
2021/10/26 08:22:04;;;;;;;69.13;28.35;;;11.00;99.90;;;;;;5013971;28;20057;-87
2021/10/26 08:24:32;;;;;;;68.50;29.08;;;11.00;99.90;;;;;;5033550;28;20056;-88
2021/10/26 08:26:59;;;;;;;69.22;28.00;;;11.10;99.90;;;;;;5017386;28;20552;-90
2021/10/26 08:30:31;;;;;;;82.82;28.55;;;11.20;99.90;;;;;;5033843;28;20053;-88
2021/10/26 08:35:36;;;;;;;66.63;28.55;;;11.10;99.90;;;;;;5020296;28;20053;-88
2021/10/26 08:37:37;;;;;;;63.97;27.27;;;11.20;99.90;;;;;;5019690;28;20112;-88
2021/10/26 08:40:05;;;;;;;63.90;26.35;;;11.30;99.90;;;;;;5028753;28;20045;-93
2021/10/26 08:42:31;;;;;;;57.33;27.25;;;11.30;99.90;;;;;;5009206;28;20080;-90
2021/10/26 08:44:58;;;;;;;63.25;27.83;;;11.50;99.90;;;;;;5015865;28;20055;-95
2021/10/26 08:47:24;;;;;;;60.17;26.77;;;11.50;99.90;;;;;;5010277;28;20045;-95
2021/10/26 08:49:52;;;;;;;52.20;25.50;;;11.60;99.90;;;;;;5020320;28;20056;-95
2021/10/26 08:52:19;;;;;;;59.75;27.60;;;11.70;99.90;;;;;;5038064;28;20061;-93
2021/10/26 08:54:49;;;;;;;46.63;25.23;;;11.80;99.90;;;;;;5032710;28;20048;-93
2021/10/26 08:57:15;;;;;;;54.47;24.83;;;11.80;99.90;;;;;;5048367;28;20056;-93
2021/10/26 08:59:41;;;;;;;44.90;24.45;;;11.80;99.90;;;;;;4996754;28;20049;-89
2021/10/26 09:02:07;;;;;;;45.35;22.63;;;11.90;99.90;;;;;;5039705;23;20137;-83
2021/10/26 09:04:35;;;;;;;50.58;24.77;;;11.90;99.90;;;;;;5025141;28;20124;-83
2021/10/26 09:07:05;;;;;;;42.70;22.45;;;12.00;99.90;;;;;;5012289;28;20038;-82
2021/10/26 09:09:34;;;;;;;53.50;23.85;;;12.20;99.90;;;;;;5009021;28;20047;-82
2021/10/26 09:17:30;;;;;;;44.45;22.17;;;12.40;99.90;;;;;;5027588;28;20079;-81
2021/10/26 09:19:58;;;;;;;40.90;21.15;;;12.50;99.90;;;;;;5012642;28;20407;-80
2021/10/26 09:22:25;;;;;;;42.50;22.35;;;12.60;99.90;;;;;;5026564;28;20083;-80
2021/10/26 09:25:00;;;;;;;38.97;19.15;;;12.60;99.90;;;;;;5027777;28;20263;-81
2021/10/26 09:27:28;;;;;;;39.22;19.50;;;12.70;99.90;;;;;;5028969;28;20475;-81
2021/10/26 09:30:00;;;;;;;60.50;19.67;;;12.80;99.90;;;;;;5028044;28;20391;-81
2021/10/26 09:32:44;;;;;;;37.38;18.17;;;12.70;99.90;;;;;;5012762;28;20043;-81
2021/10/26 09:35:13;;;;;;;37.97;18.10;;;12.80;99.90;;;;;;5009980;28;20526;-81
2021/10/26 09:37:52;;;;;;;34.53;18.30;;;12.90;99.90;;;;;;5028440;28;20134;-81
2021/10/26 09:40:18;;;;;;;33.22;17.73;;;12.90;99.90;;;;;;5023329;28;20046;-81
2021/10/26 09:42:47;;;;;;;39.00;18.08;;;13.00;99.90;;;;;;5027783;28;20128;-80
2021/10/26 09:45:34;;;;;;;35.70;17.48;;;13.10;99.90;;;;;;5011709;28;20049;-80
2021/10/26 09:48:10;;;;;;;40.10;16.95;;;13.20;99.90;;;;;;5012922;28;20414;-81
2021/10/26 09:50:36;;;;;;;32.38;15.25;;;13.20;99.90;;;;;;5028288;28;20054;-79
2021/10/26 09:53:08;;;;;;;27.75;14.57;;;13.20;99.90;;;;;;5011920;28;20073;-79
2021/10/26 09:55:42;;;;;;;30.67;12.98;;;13.50;99.90;;;;;;5010975;28;20415;-79
2021/10/26 09:58:13;;;;;;;26.13;12.13;;;13.60;99.90;;;;;;5005969;28;20049;-79
2021/10/26 10:00:42;;;;;;;31.55;13.32;;;13.80;99.90;;;;;;5013134;28;20898;-79
2021/10/26 10:03:16;;;;;;;26.48;13.15;;;13.80;99.90;;;;;;5029886;28;20051;-79
2021/10/26 10:05:52;;;;;;;25.42;12.05;;;13.90;99.90;;;;;;5014234;28;20041;-79
2021/10/26 10:08:23;;;;;;;24.65;10.75;;;13.90;99.90;;;;;;5029327;28;20033;-80
2021/10/26 10:10:54;;;;;;;23.95;11.02;;;13.90;99.90;;;;;;5011003;28;20052;-79
2021/10/26 10:13:21;;;;;;;23.35;11.60;;;13.90;99.90;;;;;;5012447;28;20110;-80
2021/10/26 10:15:48;;;;;;;28.40;11.63;;;13.90;99.90;;;;;;5030444;28;20040;-80
2021/10/26 10:18:19;;;;;;;24.27;11.55;;;13.90;99.90;;;;;;5012587;28;20037;-79
2021/10/26 10:20:54;;;;;;;29.33;10.77;;;13.90;99.90;;;;;;5047756;28;20041;-79
2021/10/26 10:23:20;;;;;;;21.70;11.20;;;14.00;99.90;;;;;;5013284;28;20045;-80
2021/10/26 10:25:47;;;;;;;21.02;10.00;;;13.90;99.90;;;;;;5012183;28;20087;-79
2021/10/26 10:28:15;;;;;;;26.55;11.00;;;14.00;99.90;;;;;;5017337;28;20048;-81
2021/10/26 10:30:42;;;;;;;33.45;11.10;;;14.00;99.90;;;;;;5026894;28;20506;-82
2021/10/26 10:33:08;;;;;;;17.98;9.55;;;14.00;99.90;;;;;;4993732;28;20069;-80
2021/10/26 10:35:34;;;;;;;21.40;8.40;;;14.00;99.90;;;;;;5028369;28;20041;-83
2021/10/26 10:38:01;;;;;;;25.42;8.82;;;14.00;99.90;;;;;;4994473;28;20041;-80
2021/10/26 10:40:30;;;;;;;23.13;8.02;;;13.90;99.90;;;;;;4998211;28;20328;-80
2021/10/26 10:42:57;;;;;;;22.67;8.00;;;14.00;99.90;;;;;;4994810;28;20033;-81
2021/10/26 10:45:26;;;;;;;17.73;7.63;;;14.10;99.90;;;;;;5025795;28;20649;-80
2021/10/26 10:47:55;;;;;;;21.50;7.97;;;14.10;99.90;;;;;;5022428;28;20064;-81
2021/10/26 10:50:21;;;;;;;29.05;9.30;;;14.10;99.90;;;;;;5009624;28;20083;-81
2021/10/26 10:53:05;;;;;;;21.02;7.13;;;14.20;99.90;;;;;;5009349;28;20049;-80
2021/10/26 10:55:32;;;;;;;21.13;6.95;;;14.20;99.90;;;;;;5007568;28;20595;-81
2021/10/26 10:58:20;;;;;;;17.15;6.43;;;14.20;99.90;;;;;;5024683;28;20037;-84
2021/10/26 11:00:46;;;;;;;19.75;7.65;;;14.20;99.90;;;;;;5017327;28;20573;-84
2021/10/26 11:03:34;;;;;;;23.17;6.55;;;14.30;99.90;;;;;;5009471;28;20049;-83
2021/10/26 11:06:00;;;;;;;22.70;6.95;;;14.20;99.90;;;;;;5020476;28;20045;-83
2021/10/26 11:08:42;;;;;;;17.67;5.75;;;14.10;99.90;;;;;;5007601;28;20059;-83
2021/10/26 11:11:09;;;;;;;19.10;6.15;;;14.00;99.90;;;;;;5007238;28;20053;-84
2021/10/26 11:13:35;;;;;;;23.35;7.07;;;14.00;99.90;;;;;;5006198;28;20092;-83
2021/10/26 11:16:05;;;;;;;28.23;8.00;;;14.00;99.90;;;;;;5007162;28;20044;-84
2021/10/26 11:18:45;;;;;;;26.75;7.65;;;14.00;99.90;;;;;;5023800;28;20128;-84
2021/10/26 11:21:24;;;;;;;21.83;6.78;;;14.00;99.90;;;;;;5006293;28;20454;-83
2021/10/26 11:24:10;;;;;;;17.85;7.13;;;14.10;99.90;;;;;;5025660;28;20057;-83
2021/10/26 11:26:43;;;;;;;20.73;7.72;;;14.10;99.90;;;;;;4998843;28;20042;-84
2021/10/26 11:29:31;;;;;;;19.15;7.90;;;14.00;99.90;;;;;;5025552;28;20069;-84
2021/10/26 11:31:56;;;;;;;25.20;8.20;;;14.00;99.90;;;;;;5008586;28;20050;-83
2021/10/26 11:34:24;;;;;;;23.92;7.78;;;14.00;99.90;;;;;;5007880;28;20048;-84
2021/10/26 11:37:01;;;;;;;19.05;7.65;;;14.00;99.90;;;;;;5024152;28;20168;-85
2021/10/26 11:39:27;;;;;;;25.08;8.35;;;14.10;99.90;;;;;;5023555;28;20055;-85
2021/10/26 11:41:54;;;;;;;17.98;7.95;;;14.10;99.90;;;;;;5026387;28;20049;-85
2021/10/26 11:44:20;;;;;;;27.20;8.73;;;14.10;99.90;;;;;;5007245;28;20064;-85
2021/10/26 11:46:49;;;;;;;23.08;8.48;;;14.00;99.90;;;;;;5025047;28;20050;-85
2021/10/26 11:49:21;;;;;;;20.20;8.65;;;13.90;99.90;;;;;;5008236;28;20456;-85
2021/10/26 11:51:58;;;;;;;23.65;8.93;;;13.90;99.90;;;;;;5024140;28;20476;-85
2021/10/26 11:54:39;;;;;;;30.08;9.27;;;14.00;99.90;;;;;;5024911;28;20084;-85
2021/10/26 11:57:10;;;;;;;30.42;9.73;;;14.00;99.90;;;;;;5008266;28;20634;-85
2021/10/26 11:59:41;;;;;;;18.73;8.57;;;14.00;99.90;;;;;;5025060;28;20045;-86
2021/10/26 12:02:15;;;;;;;26.33;8.48;;;14.10;99.90;;;;;;5007456;28;20479;-85
2021/10/26 12:05:20;;;;;;;20.80;8.10;;;14.30;99.90;;;;;;5008027;28;20056;-85
2021/10/26 12:07:51;;;;;;;16.85;7.35;;;14.30;99.90;;;;;;4997494;28;20061;-85
2021/10/26 12:10:21;;;;;;;24.75;8.25;;;14.40;99.90;;;;;;5007596;28;20391;-85
2021/10/26 12:12:46;;;;;;;24.30;8.75;;;14.40;99.90;;;;;;5024762;28;20377;-85
2021/10/26 12:15:13;;;;;;;22.00;6.97;;;14.40;99.90;;;;;;5008109;28;20381;-85
2021/10/26 12:17:40;;;;;;;19.20;6.20;;;14.40;99.90;;;;;;5007619;28;20042;-85
2021/10/26 12:20:16;;;;;;;19.80;6.00;;;14.40;99.90;;;;;;4992529;28;20453;-85
2021/10/26 12:22:47;;;;;;;14.80;5.93;;;14.40;99.90;;;;;;5020337;28;20484;-85
2021/10/26 12:27:48;;;;;;;16.80;5.68;;;14.30;99.90;;;;;;5023907;28;20486;-85
2021/10/26 12:30:26;;;;;;;17.45;5.18;;;14.30;99.90;;;;;;5024731;28;20046;-85
2021/10/26 12:32:57;;;;;;;22.38;6.53;;;14.30;99.90;;;;;;5021546;28;20503;-85
2021/10/26 12:35:26;;;;;;;16.00;5.35;;;14.20;99.90;;;;;;5023614;28;20048;-85
2021/10/26 12:38:10;;;;;;;13.73;5.30;;;14.30;99.90;;;;;;5024613;28;20060;-85
2021/10/26 12:40:42;;;;;;;17.75;6.03;;;14.40;99.90;;;;;;5023830;28;20469;-84
2021/10/26 12:43:09;;;;;;;14.07;5.63;;;14.40;99.90;;;;;;5024217;28;20049;-85
2021/10/26 12:45:38;;;;;;;16.58;5.45;;;14.30;99.90;;;;;;4991955;28;20503;-84